Holden Village, Washington
Current Conditions -  °F | °C
As of 1:55 PM on Monday 22 Dec 2014 (Local Time) from KEAT Reporting Station
Clear Clear  
Wind Chill: 51°   Ceiling: Unl
Heat Index: 51°   Visibility: 10mi
Dew Point: 26°   Wind: 17mph
Humidity: 38%   Direction: 300°WNW
Pressure: 30.26"   Gusts: NA
Location:  47.9044°N, 120.153°W
Report Text: KEAT 222155Z AUTO 30015KT 10SM CLR 11/M03 A3026 RMK AO2 SLP250 T01061033
Loading
Personal Weather Stations






























Interactive Weather Map New forecast layout! Learn more

10-Day Weather Forecast

Advertisements
Track Severe Weather on mobile